Time;durP1;ratioP1;P1;durP2;ratioP2;P2;SDS_P1;SDS_P2;PMS_P1;PMS_P2;Temp;Humidity;BMP_temperature;BMP_pressure;BME280_temperature;BME280_humidity;BME280_pressure;Samples;Min_cycle;Max_cycle;Signal;HPM_P1;HPM_P2
2023/06/03 00:00:45;;;;;;;5.18;3.08;;;17.50;45.50;;;;;;4999282;28;117361;-79
2023/06/03 00:03:13;;;;;;;6.80;3.72;;;17.50;46.30;;;;;;4980946;28;114970;-79
2023/06/03 00:05:40;;;;;;;5.68;3.13;;;17.50;45.40;;;;;;4980784;28;114334;-79
2023/06/03 00:08:07;;;;;;;5.72;3.45;;;17.50;46.10;;;;;;4982392;28;114592;-79
2023/06/03 00:10:35;;;;;;;6.43;3.38;;;17.50;46.20;;;;;;4980981;28;115127;-79
2023/06/03 00:13:03;;;;;;;5.22;3.00;;;17.60;46.50;;;;;;4980088;28;114687;-79
2023/06/03 00:15:30;;;;;;;5.78;3.40;;;17.60;46.70;;;;;;4982125;28;114406;-79
2023/06/03 00:17:57;;;;;;;6.25;3.15;;;17.50;45.70;;;;;;4982447;28;114279;-79
2023/06/03 00:20:25;;;;;;;5.47;3.15;;;17.50;45.80;;;;;;4996860;28;114838;-79
2023/06/03 00:22:52;;;;;;;5.72;3.17;;;17.40;46.20;;;;;;4981443;28;114767;-79
2023/06/03 00:25:19;;;;;;;5.57;3.17;;;17.40;45.90;;;;;;4997231;28;114531;-79
2023/06/03 00:27:49;;;;;;;5.65;3.78;;;17.30;46.50;;;;;;4998015;28;114395;-78
2023/06/03 00:30:16;;;;;;;5.47;3.42;;;17.30;46.30;;;;;;4980020;28;115062;-79
2023/06/03 00:32:44;;;;;;;5.50;3.15;;;17.40;46.20;;;;;;4981520;28;114637;-79
2023/06/03 00:35:12;;;;;;;5.68;3.03;;;17.40;46.30;;;;;;4980495;28;114495;-79
2023/06/03 00:37:39;;;;;;;5.53;3.55;;;17.30;46.10;;;;;;4982564;28;114334;-79
2023/06/03 00:40:07;;;;;;;8.10;3.65;;;17.30;46.60;;;;;;4996863;28;114973;-79
2023/06/03 00:42:35;;;;;;;6.03;2.88;;;17.30;46.50;;;;;;4987194;28;114654;-78
2023/06/03 00:45:02;;;;;;;7.93;3.70;;;17.20;47.20;;;;;;4996816;28;114433;-79
2023/06/03 00:47:30;;;;;;;4.35;2.97;;;17.30;46.10;;;;;;4981222;28;116085;-79
2023/06/03 00:49:57;;;;;;;6.55;3.33;;;17.20;47.20;;;;;;4980279;28;114988;-79
2023/06/03 00:52:25;;;;;;;5.72;2.85;;;17.20;46.50;;;;;;4981191;28;116701;-79
2023/06/03 00:54:52;;;;;;;5.25;2.92;;;17.20;46.90;;;;;;4983600;28;114721;-79
2023/06/03 00:57:22;;;;;;;7.35;3.65;;;17.20;46.70;;;;;;5001575;28;114369;-79
2023/06/03 00:59:49;;;;;;;6.63;3.65;;;17.00;47.20;;;;;;4999073;28;116538;-78
2023/06/03 01:02:17;;;;;;;9.43;3.65;;;17.00;47.20;;;;;;5000593;28;116639;-78
2023/06/03 01:04:45;;;;;;;5.75;3.75;;;17.00;47.10;;;;;;5000349;28;114311;-78
2023/06/03 01:07:26;;;;;;;7.03;4.25;;;16.90;47.80;;;;;;4984632;28;114235;-78
2023/06/03 01:10:28;;;;;;;6.40;4.50;;;16.90;47.60;;;;;;4986354;28;115145;-78
2023/06/03 01:13:14;;;;;;;5.78;3.35;;;16.80;47.40;;;;;;4986420;28;114721;-78
2023/06/03 01:15:42;;;;;;;7.65;4.40;;;16.80;48.20;;;;;;5003201;28;114631;-78
2023/06/03 01:18:09;;;;;;;8.43;5.20;;;16.80;47.60;;;;;;4987362;28;114390;-78
2023/06/03 01:20:37;;;;;;;7.63;4.57;;;16.80;46.80;;;;;;4985992;28;114952;-79
2023/06/03 01:23:11;;;;;;;7.00;4.00;;;16.70;46.90;;;;;;5003859;28;114784;-79
2023/06/03 01:25:41;;;;;;;5.40;3.28;;;16.70;47.80;;;;;;5004196;28;114381;-79
2023/06/03 01:28:09;;;;;;;6.35;4.20;;;16.50;48.40;;;;;;5004257;28;114297;-79
2023/06/03 01:30:37;;;;;;;5.78;3.08;;;16.50;48.30;;;;;;5003576;28;114936;-79
2023/06/03 01:33:04;;;;;;;6.22;3.70;;;16.50;48.70;;;;;;5002608;28;114854;-79
2023/06/03 01:35:31;;;;;;;9.68;5.38;;;16.60;48.70;;;;;;4978384;28;114491;-78
2023/06/03 01:37:59;;;;;;;7.78;4.32;;;16.60;47.90;;;;;;4964500;28;114878;-79
2023/06/03 01:40:27;;;;;;;8.13;4.25;;;16.60;47.90;;;;;;4965273;28;117059;-78
2023/06/03 01:42:54;;;;;;;7.28;4.40;;;16.60;48.30;;;;;;4999639;28;115136;-79
2023/06/03 01:45:21;;;;;;;8.65;5.72;;;16.70;47.90;;;;;;4991002;28;114600;-80
2023/06/03 01:47:48;;;;;;;6.22;3.58;;;16.60;47.00;;;;;;4986709;28;114499;-79
2023/06/03 01:50:16;;;;;;;8.15;4.45;;;16.60;48.30;;;;;;5000747;28;115082;-79
2023/06/03 01:52:44;;;;;;;7.68;4.95;;;16.50;48.80;;;;;;5001920;28;115044;-78
2023/06/03 01:55:12;;;;;;;6.75;4.47;;;16.40;48.00;;;;;;5003903;28;115086;-79
2023/06/03 01:57:39;;;;;;;8.63;5.70;;;16.30;48.80;;;;;;5003059;28;114502;-80
2023/06/03 02:00:07;;;;;;;5.97;4.28;;;16.30;48.00;;;;;;5003311;28;114903;-78
2023/06/03 02:02:39;;;;;;;8.20;4.50;;;16.20;48.60;;;;;;5001832;28;115680;-78
2023/06/03 02:05:07;;;;;;;6.18;5.10;;;16.20;49.30;;;;;;5002400;28;115727;-77
2023/06/03 02:07:34;;;;;;;9.07;5.13;;;16.00;49.10;;;;;;4987166;28;114287;-78
2023/06/03 02:10:02;;;;;;;6.60;4.35;;;15.80;49.00;;;;;;5000506;28;116265;-78
2023/06/03 02:12:29;;;;;;;6.93;3.90;;;15.60;50.50;;;;;;4983739;28;115236;-77
2023/06/03 02:14:57;;;;;;;7.57;4.28;;;15.70;50.70;;;;;;4983953;28;114280;-77
2023/06/03 02:17:26;;;;;;;7.07;4.30;;;15.90;50.70;;;;;;4983992;28;114233;-78
2023/06/03 02:19:54;;;;;;;6.25;4.55;;;16.10;50.10;;;;;;4965396;28;116970;-78
2023/06/03 02:22:22;;;;;;;7.13;4.25;;;16.30;49.50;;;;;;4963273;28;114644;-78
2023/06/03 02:24:50;;;;;;;7.95;5.30;;;16.50;49.50;;;;;;4999592;28;114266;-78
2023/06/03 02:27:20;;;;;;;7.40;4.60;;;16.60;48.90;;;;;;4970840;28;115480;-78
2023/06/03 02:29:50;;;;;;;9.15;4.85;;;16.70;48.80;;;;;;4986239;28;114898;-78
2023/06/03 02:32:19;;;;;;;8.65;5.07;;;16.70;48.90;;;;;;4987233;28;115173;-77
2023/06/03 02:34:48;;;;;;;9.10;4.50;;;16.80;48.60;;;;;;4953748;28;114280;-78
2023/06/03 02:37:17;;;;;;;7.57;5.47;;;16.90;48.50;;;;;;5004517;28;114178;-78
2023/06/03 02:39:45;;;;;;;9.63;5.55;;;16.90;48.20;;;;;;4990494;28;115013;-78
2023/06/03 02:42:13;;;;;;;8.90;5.22;;;16.90;48.00;;;;;;4980352;28;114653;-78
2023/06/03 02:44:40;;;;;;;7.10;4.85;;;16.90;48.20;;;;;;4987826;28;114162;-79
2023/06/03 02:47:07;;;;;;;6.85;4.82;;;16.80;48.50;;;;;;4982758;28;114552;-79
2023/06/03 02:49:36;;;;;;;8.68;5.20;;;16.80;48.30;;;;;;4999058;28;115045;-79
2023/06/03 02:52:06;;;;;;;10.15;6.20;;;16.60;48.50;;;;;;4993636;28;114838;-79
2023/06/03 02:54:33;;;;;;;8.18;6.07;;;16.60;48.10;;;;;;4988310;28;114328;-77
2023/06/03 02:57:00;;;;;;;9.73;6.57;;;16.50;48.30;;;;;;4984594;28;114014;-78
2023/06/03 02:59:28;;;;;;;8.10;5.13;;;16.50;48.10;;;;;;4991924;28;115035;-77
2023/06/03 03:01:55;;;;;;;6.82;4.63;;;16.30;48.70;;;;;;4984962;28;115832;-78
2023/06/03 03:04:23;;;;;;;8.43;5.47;;;16.20;49.40;;;;;;5003243;28;114469;-77
2023/06/03 03:06:54;;;;;;;6.88;5.28;;;16.30;49.10;;;;;;5019122;28;114455;-78
2023/06/03 03:09:21;;;;;;;7.07;5.20;;;16.30;49.40;;;;;;5001583;28;114992;-79
2023/06/03 03:11:48;;;;;;;8.98;5.93;;;16.20;49.30;;;;;;5002990;28;114451;-78
2023/06/03 03:14:17;;;;;;;7.47;5.07;;;16.20;48.90;;;;;;5002401;28;114318;-78
2023/06/03 03:16:47;;;;;;;8.18;4.80;;;16.20;49.50;;;;;;4986420;28;114312;-78
2023/06/03 03:19:15;;;;;;;7.13;4.70;;;16.40;49.30;;;;;;4985392;28;115337;-78
2023/06/03 03:21:42;;;;;;;7.72;5.20;;;16.90;49.00;;;;;;4995485;28;114708;-79
2023/06/03 03:24:13;;;;;;;6.60;4.18;;;17.40;47.90;;;;;;4982091;28;114464;-78
2023/06/03 03:26:42;;;;;;;6.85;4.18;;;17.90;47.40;;;;;;4982330;28;114446;-78
2023/06/03 03:29:09;;;;;;;7.60;5.05;;;18.40;46.80;;;;;;4978339;28;114818;-78
2023/06/03 03:31:36;;;;;;;10.13;5.68;;;18.90;45.10;;;;;;4996589;28;114781;-78
2023/06/03 03:34:07;;;;;;;7.20;3.80;;;19.10;43.90;;;;;;5001682;28;115245;-78
2023/06/03 03:36:36;;;;;;;9.13;4.97;;;19.20;44.50;;;;;;5003391;28;114160;-77
2023/06/03 03:39:09;;;;;;;6.65;4.50;;;19.50;43.50;;;;;;5001038;28;114712;-78
2023/06/03 03:41:50;;;;;;;7.68;4.07;;;19.60;43.20;;;;;;5001161;28;114943;-80
2023/06/03 03:44:17;;;;;;;8.15;4.57;;;19.80;43.50;;;;;;5001789;28;114202;-78
2023/06/03 03:46:59;;;;;;;7.95;4.65;;;19.90;42.80;;;;;;5003471;28;114501;-78
2023/06/03 03:49:28;;;;;;;8.00;4.68;;;20.00;42.20;;;;;;4978748;28;115165;-78
2023/06/03 03:52:03;;;;;;;7.35;5.18;;;20.10;42.50;;;;;;4964854;28;114606;-78
2023/06/03 03:54:30;;;;;;;7.85;5.13;;;20.40;41.60;;;;;;4985503;28;115602;-78
2023/06/03 03:56:58;;;;;;;9.10;4.72;;;20.40;40.60;;;;;;5002302;28;114326;-78
2023/06/03 03:59:26;;;;;;;6.50;4.28;;;20.10;41.40;;;;;;4998510;28;114929;-78
2023/06/03 04:01:54;;;;;;;7.45;5.05;;;20.00;42.20;;;;;;4980615;28;114730;-78
2023/06/03 04:04:38;;;;;;;7.60;4.72;;;20.10;41.60;;;;;;4981746;28;114247;-79
2023/06/03 04:07:14;;;;;;;11.52;6.05;;;20.10;41.70;;;;;;4986717;28;114380;-78
2023/06/03 04:09:45;;;;;;;7.85;5.15;;;20.00;40.90;;;;;;5000698;28;115242;-78
2023/06/03 04:12:20;;;;;;;10.73;5.75;;;19.90;41.50;;;;;;5000980;28;114959;-78
2023/06/03 04:14:49;;;;;;;8.48;5.35;;;19.90;41.50;;;;;;4994653;28;114606;-78
2023/06/03 04:17:21;;;;;;;6.10;3.90;;;19.80;41.30;;;;;;4986621;28;114305;-78
2023/06/03 04:19:48;;;;;;;8.43;5.60;;;19.80;42.20;;;;;;4999823;28;116960;-78
2023/06/03 04:22:22;;;;;;;9.13;6.45;;;19.80;41.70;;;;;;4983741;28;116192;-78
2023/06/03 04:25:02;;;;;;;7.82;5.35;;;19.60;41.30;;;;;;5016990;28;114610;-78
2023/06/03 04:27:37;;;;;;;11.02;5.55;;;19.10;42.60;;;;;;5017744;28;115701;-78
2023/06/03 04:30:05;;;;;;;6.45;4.40;;;18.80;43.00;;;;;;4976453;28;114953;-78
2023/06/03 04:32:32;;;;;;;6.18;4.38;;;18.80;43.70;;;;;;4983899;28;114666;-78
2023/06/03 04:34:59;;;;;;;8.35;6.18;;;18.80;43.60;;;;;;4970045;28;118074;-79
2023/06/03 04:37:27;;;;;;;7.00;4.57;;;18.80;43.00;;;;;;4981636;28;114318;-79
2023/06/03 04:39:58;;;;;;;10.15;6.15;;;18.60;43.90;;;;;;4989431;28;114957;-77
2023/06/03 04:42:30;;;;;;;8.40;4.97;;;18.50;43.50;;;;;;4971355;28;114601;-78
2023/06/03 04:45:00;;;;;;;9.80;6.72;;;18.30;44.00;;;;;;4993336;28;114356;-77
2023/06/03 04:47:31;;;;;;;8.50;4.95;;;18.20;43.80;;;;;;5004395;28;114257;-78
2023/06/03 04:50:03;;;;;;;8.15;4.80;;;18.20;44.60;;;;;;5003365;28;115141;-78
2023/06/03 04:52:31;;;;;;;8.82;6.00;;;18.30;44.60;;;;;;4987397;28;114654;-79
2023/06/03 04:54:58;;;;;;;11.07;5.30;;;18.60;44.00;;;;;;4971231;28;114157;-79
2023/06/03 04:57:27;;;;;;;7.65;5.40;;;18.60;43.90;;;;;;5004192;28;114570;-78
2023/06/03 04:59:55;;;;;;;9.93;7.32;;;18.70;43.60;;;;;;5003091;28;116246;-79
2023/06/03 05:02:29;;;;;;;7.22;4.38;;;18.80;43.10;;;;;;5003133;28;117054;-79
2023/06/03 05:05:01;;;;;;;7.60;5.20;;;18.70;43.80;;;;;;5003659;28;115971;-78
2023/06/03 05:07:29;;;;;;;7.72;4.47;;;18.70;43.70;;;;;;5003908;28;114288;-78
2023/06/03 05:09:57;;;;;;;7.28;5.40;;;18.80;43.80;;;;;;5002471;28;115104;-79
2023/06/03 05:12:25;;;;;;;6.85;5.25;;;18.80;43.50;;;;;;5003408;28;115354;-79
2023/06/03 05:14:53;;;;;;;6.95;5.32;;;18.60;43.80;;;;;;5004220;28;114420;-79
2023/06/03 05:17:21;;;;;;;9.73;6.82;;;18.50;43.90;;;;;;5000616;28;114372;-77
2023/06/03 05:19:48;;;;;;;8.85;6.00;;;18.50;43.10;;;;;;4999753;28;114977;-79
2023/06/03 05:22:16;;;;;;;11.68;6.85;;;18.20;43.40;;;;;;4982949;28;115148;-79
2023/06/03 05:24:43;;;;;;;7.30;4.78;;;18.20;43.70;;;;;;4983910;28;114159;-78
2023/06/03 05:27:10;;;;;;;7.70;5.10;;;18.20;44.40;;;;;;4984126;28;116897;-77
2023/06/03 05:29:37;;;;;;;8.32;5.18;;;18.40;43.90;;;;;;4984364;28;114875;-79
2023/06/03 05:32:05;;;;;;;6.78;5.20;;;18.50;43.60;;;;;;4983144;28;114708;-79
2023/06/03 05:34:33;;;;;;;9.55;5.55;;;18.70;43.20;;;;;;4983256;28;114461;-78
2023/06/03 05:37:03;;;;;;;9.43;5.63;;;18.70;42.50;;;;;;4983870;28;114333;-78
2023/06/03 05:39:30;;;;;;;7.30;4.57;;;18.70;42.20;;;;;;4996950;28;115901;-78
2023/06/03 05:41:58;;;;;;;9.57;5.28;;;18.40;43.30;;;;;;4981656;28;117709;-78
2023/06/03 05:44:26;;;;;;;7.75;5.18;;;18.20;42.90;;;;;;4983968;28;114357;-78
2023/06/03 05:46:53;;;;;;;10.43;5.30;;;18.10;43.20;;;;;;4984363;28;114878;-78
2023/06/03 05:49:20;;;;;;;9.20;4.93;;;18.20;42.50;;;;;;4966669;28;117003;-79
2023/06/03 05:51:50;;;;;;;6.28;4.28;;;18.30;41.70;;;;;;4982656;28;114643;-78
2023/06/03 05:54:19;;;;;;;8.50;5.55;;;18.20;42.40;;;;;;5005640;28;114341;-78
2023/06/03 05:56:47;;;;;;;6.28;4.30;;;18.10;42.50;;;;;;5003077;28;114236;-78
2023/06/03 05:59:16;;;;;;;8.73;5.43;;;17.90;43.20;;;;;;5001740;28;114915;-78
2023/06/03 06:01:44;;;;;;;8.70;5.28;;;17.80;43.00;;;;;;5003580;28;116346;-78
2023/06/03 06:04:12;;;;;;;7.22;5.25;;;18.00;42.70;;;;;;5002795;28;114597;-78
2023/06/03 06:06:39;;;;;;;6.13;4.65;;;18.00;42.90;;;;;;4986207;28;114434;-79
2023/06/03 06:09:06;;;;;;;7.57;4.55;;;18.20;42.60;;;;;;5003400;28;114847;-79
2023/06/03 06:11:34;;;;;;;8.15;4.82;;;18.50;42.60;;;;;;5002202;28;114217;-78
2023/06/03 06:14:02;;;;;;;7.63;4.72;;;18.50;42.60;;;;;;5003300;28;114233;-79
2023/06/03 06:16:32;;;;;;;8.27;4.72;;;18.70;41.90;;;;;;5003228;28;114372;-79
2023/06/03 06:18:59;;;;;;;8.82;4.78;;;18.80;41.70;;;;;;4987951;28;115651;-79
2023/06/03 06:21:28;;;;;;;5.60;4.38;;;18.80;41.60;;;;;;4981383;28;114545;-78
2023/06/03 06:23:55;;;;;;;7.40;4.82;;;18.90;41.70;;;;;;4982574;28;114556;-79
2023/06/03 06:26:26;;;;;;;8.20;4.72;;;18.90;40.60;;;;;;4983030;28;114339;-78
2023/06/03 06:28:56;;;;;;;7.60;4.97;;;18.90;41.20;;;;;;4982247;28;115057;-78
2023/06/03 06:31:24;;;;;;;8.52;4.22;;;19.00;40.00;;;;;;4950360;28;114527;-79
2023/06/03 06:33:53;;;;;;;10.35;4.70;;;18.90;40.70;;;;;;4980022;28;114301;-79
2023/06/03 06:36:32;;;;;;;7.32;5.07;;;19.00;40.60;;;;;;4967387;28;114131;-79
2023/06/03 06:39:06;;;;;;;7.10;4.32;;;19.20;39.70;;;;;;5002974;28;114841;-78
2023/06/03 06:41:36;;;;;;;6.60;4.57;;;19.30;39.20;;;;;;4984944;28;115290;-79
2023/06/03 06:44:05;;;;;;;8.10;4.93;;;19.40;39.50;;;;;;4964019;28;114372;-78
2023/06/03 06:46:32;;;;;;;6.03;4.13;;;19.30;39.60;;;;;;4963270;28;114371;-78
2023/06/03 06:49:00;;;;;;;10.15;4.75;;;19.40;39.70;;;;;;4977904;28;117667;-79
2023/06/03 06:51:29;;;;;;;7.00;4.35;;;19.40;39.30;;;;;;4967964;28;117193;-78
2023/06/03 06:53:58;;;;;;;8.70;4.90;;;19.30;40.00;;;;;;4985788;28;114619;-78
2023/06/03 06:56:27;;;;;;;7.18;3.40;;;19.20;39.00;;;;;;4964710;28;114247;-78
2023/06/03 06:58:57;;;;;;;4.50;2.90;;;19.00;37.60;;;;;;4981392;28;115147;-78
2023/06/03 07:01:24;;;;;;;5.20;3.08;;;18.80;37.20;;;;;;4979588;28;115230;-78
2023/06/03 07:03:55;;;;;;;7.47;3.28;;;18.80;39.20;;;;;;4981648;28;114413;-78
2023/06/03 07:06:25;;;;;;;5.70;3.10;;;18.80;37.80;;;;;;4982103;28;114346;-78
2023/06/03 07:08:58;;;;;;;6.63;3.22;;;18.80;38.30;;;;;;5001212;28;115178;-78
2023/06/03 07:11:26;;;;;;;6.90;3.00;;;18.70;37.60;;;;;;5000649;28;115743;-78
2023/06/03 07:13:57;;;;;;;5.20;3.20;;;18.70;37.70;;;;;;4992585;28;114472;-79
2023/06/03 07:16:25;;;;;;;5.00;3.10;;;18.60;37.70;;;;;;5001524;28;116946;-78
2023/06/03 07:18:55;;;;;;;9.32;3.15;;;18.80;37.40;;;;;;4985047;28;114873;-79
2023/06/03 07:21:36;;;;;;;7.65;3.05;;;18.80;36.80;;;;;;5000970;28;114785;-78
2023/06/03 07:24:08;;;;;;;4.28;2.60;;;18.70;36.10;;;;;;4985600;28;114282;-79
2023/06/03 07:26:36;;;;;;;6.22;3.00;;;18.50;35.40;;;;;;5001586;28;114180;-78
2023/06/03 07:29:03;;;;;;;7.22;3.10;;;18.40;36.80;;;;;;5000587;28;117190;-79
2023/06/03 07:31:32;;;;;;;5.35;2.85;;;18.30;36.40;;;;;;5001320;28;114837;-78
2023/06/03 07:34:00;;;;;;;7.00;2.83;;;18.30;36.20;;;;;;4976864;28;114460;-79
2023/06/03 07:36:42;;;;;;;9.90;3.00;;;18.20;35.30;;;;;;4982009;28;115205;-78
2023/06/03 07:39:14;;;;;;;4.80;2.80;;;18.10;36.00;;;;;;4980455;28;114990;-78
2023/06/03 07:41:50;;;;;;;7.93;2.75;;;17.80;36.30;;;;;;4997275;28;114647;-78
2023/06/03 07:44:42;;;;;;;7.90;2.88;;;17.70;35.50;;;;;;4981499;28;114497;-79
2023/06/03 07:47:12;;;;;;;6.20;2.40;;;17.70;35.10;;;;;;4980996;28;114331;-79
2023/06/03 07:49:39;;;;;;;5.57;2.53;;;17.50;35.60;;;;;;4987650;28;115465;-79
2023/06/03 07:52:07;;;;;;;6.95;2.38;;;17.50;35.50;;;;;;4983467;28;114631;-77
2023/06/03 07:54:35;;;;;;;7.72;2.20;;;17.40;35.30;;;;;;5001165;28;114716;-79
2023/06/03 07:57:02;;;;;;;6.07;1.95;;;17.30;33.70;;;;;;4968409;28;116182;-79
2023/06/03 07:59:30;;;;;;;5.93;2.15;;;17.20;35.30;;;;;;5000217;28;115809;-78
2023/06/03 08:02:00;;;;;;;18.13;3.38;;;17.30;35.10;;;;;;4983675;28;114984;-79
2023/06/03 08:04:32;;;;;;;6.60;2.00;;;17.40;32.70;;;;;;5000246;28;114518;-78
2023/06/03 08:07:02;;;;;;;4.25;1.85;;;17.30;32.10;;;;;;5000945;28;114496;-78
2023/06/03 08:09:34;;;;;;;4.35;1.90;;;17.30;31.60;;;;;;4980200;28;115084;-79
2023/06/03 08:12:05;;;;;;;5.75;1.98;;;17.00;31.20;;;;;;4981202;28;115268;-79
2023/06/03 08:14:34;;;;;;;3.70;1.58;;;16.80;31.60;;;;;;5001875;28;114266;-79
2023/06/03 08:17:12;;;;;;;4.38;1.90;;;16.80;32.00;;;;;;4983726;28;114447;-79
2023/06/03 08:19:39;;;;;;;9.05;2.00;;;16.90;34.40;;;;;;5002147;28;114913;-78
2023/06/03 08:22:28;;;;;;;4.28;1.73;;;17.10;32.80;;;;;;5003769;28;114763;-78
2023/06/03 08:24:55;;;;;;;6.22;2.03;;;17.30;34.40;;;;;;4987632;28;114692;-79
2023/06/03 08:27:22;;;;;;;7.95;1.90;;;17.40;32.90;;;;;;4989125;28;114285;-79
2023/06/03 08:29:49;;;;;;;4.43;2.10;;;17.50;33.10;;;;;;4986502;28;115200;-78
2023/06/03 08:32:16;;;;;;;5.55;1.80;;;17.60;32.50;;;;;;4988618;28;114707;-79
2023/06/03 08:34:43;;;;;;;5.38;2.05;;;17.70;32.00;;;;;;4989258;28;114169;-79
2023/06/03 08:37:10;;;;;;;4.18;1.90;;;17.80;31.80;;;;;;4990494;28;114512;-79
2023/06/03 08:39:38;;;;;;;5.22;1.75;;;17.80;32.20;;;;;;5012573;28;114164;-78
2023/06/03 08:42:09;;;;;;;5.13;1.92;;;17.80;32.80;;;;;;5004273;28;114455;-79
2023/06/03 08:44:58;;;;;;;4.20;1.90;;;17.90;32.00;;;;;;4990009;28;116477;-77
2023/06/03 08:47:43;;;;;;;5.57;1.85;;;17.90;32.50;;;;;;5008391;28;114518;-79
2023/06/03 08:50:10;;;;;;;5.97;1.92;;;18.00;32.90;;;;;;5008083;28;114931;-78
2023/06/03 08:52:39;;;;;;;3.58;1.73;;;18.00;31.90;;;;;;4989978;28;114641;-79
2023/06/03 08:55:06;;;;;;;7.28;2.00;;;17.90;32.00;;;;;;4990715;28;114406;-79
2023/06/03 08:57:35;;;;;;;6.15;1.90;;;17.90;31.20;;;;;;4966955;28;114509;-79
2023/06/03 09:00:05;;;;;;;3.47;1.55;;;17.80;31.20;;;;;;5003231;28;114895;-79
2023/06/03 09:02:32;;;;;;;9.75;2.67;;;17.60;32.80;;;;;;4988007;28;114810;-79
2023/06/03 09:05:01;;;;;;;7.35;1.90;;;17.70;32.10;;;;;;4988628;28;114457;-78
2023/06/03 09:07:28;;;;;;;5.68;2.38;;;17.60;32.40;;;;;;4987764;28;114217;-79
2023/06/03 09:09:55;;;;;;;5.32;1.63;;;17.60;32.30;;;;;;4987271;28;114975;-79
2023/06/03 09:12:23;;;;;;;6.38;2.50;;;17.60;32.10;;;;;;5001610;28;114783;-79
2023/06/03 09:14:53;;;;;;;5.43;2.22;;;17.60;31.50;;;;;;4988848;28;114013;-79
2023/06/03 09:17:24;;;;;;;5.68;1.75;;;17.50;32.90;;;;;;4987582;28;114778;-79
2023/06/03 09:19:52;;;;;;;6.60;1.85;;;17.60;31.80;;;;;;5000514;28;114849;-80
2023/06/03 09:22:20;;;;;;;4.90;2.15;;;17.50;32.00;;;;;;4986634;28;115901;-79
2023/06/03 09:24:47;;;;;;;8.35;2.53;;;17.40;33.20;;;;;;4987775;28;114227;-78
2023/06/03 09:27:14;;;;;;;6.90;2.10;;;17.40;32.80;;;;;;5002483;28;114709;-79
2023/06/03 09:29:42;;;;;;;4.93;1.80;;;17.40;33.10;;;;;;4985331;28;115459;-80
2023/06/03 09:32:10;;;;;;;7.68;2.45;;;17.40;33.90;;;;;;4991829;28;114676;-78
2023/06/03 09:34:37;;;;;;;6.65;2.33;;;17.50;33.50;;;;;;5005148;28;115186;-78
2023/06/03 09:37:10;;;;;;;7.68;2.42;;;17.60;33.60;;;;;;4987880;28;114477;-78
2023/06/03 09:39:38;;;;;;;4.40;2.13;;;17.60;33.30;;;;;;5003315;28;115396;-78
2023/06/03 09:42:06;;;;;;;5.63;2.15;;;17.60;33.60;;;;;;4975850;28;114695;-78
2023/06/03 09:44:49;;;;;;;6.53;2.22;;;17.70;33.00;;;;;;4998957;28;114506;-79
2023/06/03 09:47:16;;;;;;;5.20;2.10;;;17.80;32.60;;;;;;4999864;28;114267;-79
2023/06/03 09:50:06;;;;;;;6.55;2.17;;;17.80;33.10;;;;;;4999640;28;115419;-78
2023/06/03 09:52:40;;;;;;;7.70;2.60;;;17.70;33.50;;;;;;4999694;28;114756;-77
2023/06/03 09:55:08;;;;;;;8.15;2.97;;;17.60;33.80;;;;;;4984275;28;114193;-78
2023/06/03 09:57:38;;;;;;;5.85;2.50;;;17.70;33.70;;;;;;4984726;28;114621;-80
2023/06/03 10:00:07;;;;;;;7.70;2.75;;;17.60;34.50;;;;;;4983813;28;115570;-79
2023/06/03 10:02:46;;;;;;;4.90;2.17;;;17.70;34.10;;;;;;4984542;28;114770;-79
2023/06/03 10:05:29;;;;;;;5.88;2.33;;;17.70;34.70;;;;;;4983583;28;114308;-80
2023/06/03 10:07:57;;;;;;;6.00;2.70;;;17.80;34.50;;;;;;4983307;28;114471;-78
2023/06/03 10:10:29;;;;;;;4.57;2.38;;;17.80;34.80;;;;;;4982105;28;118376;-80
2023/06/03 10:12:57;;;;;;;7.75;2.38;;;17.80;34.80;;;;;;4980214;28;116278;-78
2023/06/03 10:15:37;;;;;;;7.03;2.40;;;17.80;34.10;;;;;;4982951;28;114400;-78
2023/06/03 10:18:06;;;;;;;3.70;2.28;;;17.80;34.10;;;;;;4998792;28;114182;-79
2023/06/03 10:20:35;;;;;;;5.93;1.85;;;17.80;34.00;;;;;;4998877;28;115328;-78
2023/06/03 10:23:05;;;;;;;8.00;2.10;;;17.80;35.10;;;;;;4983596;28;115351;-79
2023/06/03 10:25:43;;;;;;;4.18;2.05;;;17.90;34.10;;;;;;4963795;28;114412;-79
2023/06/03 10:28:11;;;;;;;5.45;2.35;;;17.90;34.10;;;;;;4984714;28;114163;-79
2023/06/03 10:30:40;;;;;;;7.25;2.47;;;17.90;34.70;;;;;;4983297;28;115124;-79
2023/06/03 10:33:08;;;;;;;6.03;2.17;;;17.90;33.60;;;;;;4984189;28;114683;-78
2023/06/03 10:35:36;;;;;;;5.57;2.45;;;17.70;34.90;;;;;;4982668;28;114237;-78
2023/06/03 10:38:05;;;;;;;4.68;2.10;;;17.80;34.60;;;;;;4994218;28;114174;-79
2023/06/03 10:40:33;;;;;;;5.43;2.10;;;17.80;35.10;;;;;;4989837;28;114314;-79
2023/06/03 10:43:02;;;;;;;4.22;1.80;;;18.00;34.70;;;;;;5017588;28;114419;-79
2023/06/03 10:45:29;;;;;;;4.72;2.00;;;18.20;34.70;;;;;;5003052;28;114296;-80
2023/06/03 10:48:03;;;;;;;6.18;2.35;;;18.20;34.10;;;;;;5002604;28;114357;-78
2023/06/03 10:51:00;;;;;;;5.82;2.58;;;18.20;33.70;;;;;;4986660;28;114976;-78
2023/06/03 10:54:02;;;;;;;7.45;2.75;;;18.20;33.90;;;;;;4969533;28;114804;-79
2023/06/03 10:56:34;;;;;;;5.10;2.17;;;18.10;33.60;;;;;;4981535;28;115303;-78
2023/06/03 10:59:09;;;;;;;5.68;2.60;;;18.00;33.50;;;;;;5002799;28;114431;-79
2023/06/03 11:01:59;;;;;;;4.82;2.50;;;18.00;33.70;;;;;;4984955;28;114908;-78
2023/06/03 11:04:28;;;;;;;7.57;2.20;;;17.80;34.20;;;;;;5001773;28;114739;-78
2023/06/03 11:06:55;;;;;;;5.18;3.10;;;17.70;34.50;;;;;;5002359;28;114223;-79
2023/06/03 11:09:40;;;;;;;7.47;2.78;;;17.80;34.40;;;;;;5003809;28;114132;-79
2023/06/03 11:12:14;;;;;;;6.35;2.58;;;17.80;34.50;;;;;;5001569;28;114834;-78
2023/06/03 11:14:50;;;;;;;5.53;2.13;;;17.80;35.00;;;;;;5003190;28;114680;-78
2023/06/03 11:17:18;;;;;;;7.90;3.05;;;17.80;34.60;;;;;;5002373;28;114298;-78
2023/06/03 11:19:45;;;;;;;12.32;3.03;;;17.80;34.90;;;;;;4970403;28;114377;-79
2023/06/03 11:22:13;;;;;;;5.88;2.72;;;17.90;34.60;;;;;;5001577;28;114944;-78
2023/06/03 11:24:44;;;;;;;6.40;2.90;;;17.90;35.30;;;;;;5001194;28;115225;-79
2023/06/03 11:27:14;;;;;;;4.93;2.60;;;18.00;34.80;;;;;;5003080;28;114205;-78
2023/06/03 11:29:51;;;;;;;4.32;2.30;;;18.10;35.00;;;;;;5003719;28;117986;-79
2023/06/03 11:32:21;;;;;;;7.18;2.58;;;18.20;35.00;;;;;;5002478;28;116235;-79
2023/06/03 11:35:03;;;;;;;4.63;2.50;;;18.30;34.50;;;;;;5002686;28;114420;-79
2023/06/03 11:37:54;;;;;;;5.15;2.50;;;18.20;34.60;;;;;;5002124;28;114184;-78
2023/06/03 11:40:21;;;;;;;4.43;2.53;;;18.20;34.50;;;;;;4985104;28;114569;-79
2023/06/03 11:42:51;;;;;;;6.22;3.30;;;18.00;34.30;;;;;;4984932;28;115740;-78
2023/06/03 11:45:25;;;;;;;6.35;2.40;;;17.90;34.80;;;;;;5001605;28;114625;-79
2023/06/03 11:48:11;;;;;;;6.67;2.47;;;17.90;34.60;;;;;;5003200;28;114259;-78
2023/06/03 11:50:49;;;;;;;5.60;2.80;;;17.90;35.20;;;;;;5002294;28;115418;-78
2023/06/03 11:53:35;;;;;;;4.32;2.72;;;17.90;34.90;;;;;;5000429;28;115042;-77
2023/06/03 11:56:09;;;;;;;6.22;2.40;;;18.10;34.90;;;;;;5000893;28;114755;-79
2023/06/03 11:58:40;;;;;;;4.55;2.53;;;18.10;34.40;;;;;;4986414;28;114448;-78
2023/06/03 12:01:17;;;;;;;6.45;2.38;;;18.00;34.10;;;;;;5001569;28;114244;-79
2023/06/03 12:04:01;;;;;;;6.82;2.40;;;18.00;34.30;;;;;;5002227;28;115681;-80
2023/06/03 12:06:37;;;;;;;5.32;2.40;;;17.90;34.50;;;;;;5000850;28;115198;-78
2023/06/03 12:09:05;;;;;;;6.50;2.33;;;18.00;35.20;;;;;;5001639;28;114497;-78
2023/06/03 12:11:33;;;;;;;6.55;3.03;;;18.00;34.60;;;;;;4985222;28;114244;-79
2023/06/03 12:14:00;;;;;;;5.88;2.47;;;18.10;34.90;;;;;;5000171;28;117392;-78
2023/06/03 12:16:32;;;;;;;4.93;2.75;;;18.20;34.70;;;;;;5001743;28;115109;-78
2023/06/03 12:19:08;;;;;;;6.53;2.42;;;18.20;34.30;;;;;;5001876;28;114333;-79
2023/06/03 12:21:36;;;;;;;7.65;2.63;;;18.20;34.60;;;;;;5001043;28;114638;-79
2023/06/03 12:24:12;;;;;;;5.47;2.60;;;18.10;34.50;;;;;;5001816;28;114919;-78
2023/06/03 12:26:41;;;;;;;4.20;2.50;;;18.20;34.60;;;;;;4984194;28;114908;-78
2023/06/03 12:29:12;;;;;;;6.88;2.88;;;18.20;34.20;;;;;;5001171;28;114244;-79
2023/06/03 12:31:40;;;;;;;6.43;2.72;;;18.20;34.40;;;;;;5001679;28;114170;-80
2023/06/03 12:34:10;;;;;;;6.60;3.47;;;18.10;34.60;;;;;;4983574;28;115426;-79
2023/06/03 12:36:49;;;;;;;5.78;2.50;;;18.00;34.70;;;;;;5002213;28;114703;-79
2023/06/03 12:39:17;;;;;;;6.57;2.75;;;18.10;34.60;;;;;;5000923;28;114580;-79
2023/06/03 12:41:52;;;;;;;7.63;2.60;;;18.10;34.90;;;;;;5004117;28;114628;-78
2023/06/03 12:44:19;;;;;;;3.97;2.08;;;18.10;34.90;;;;;;5000640;28;115154;-79
2023/06/03 12:47:02;;;;;;;4.15;2.20;;;18.10;34.40;;;;;;5001815;28;114709;-78
2023/06/03 12:49:31;;;;;;;5.93;2.25;;;18.20;34.40;;;;;;5002043;28;114303;-80
2023/06/03 12:52:17;;;;;;;5.32;2.45;;;18.20;34.00;;;;;;5000941;28;114642;-79